createdAt,value
2018-04-25T00:00:16.319Z,48.58
2018-04-25T00:01:16.439Z,45.90
2018-04-25T00:02:16.612Z,52.98
2018-04-25T00:03:16.777Z,46.14
2018-04-25T00:04:16.941Z,46.88
2018-04-25T00:05:17.107Z,52.73
2018-04-25T00:06:17.272Z,62.74
2018-04-25T00:07:17.440Z,47.36
2018-04-25T00:08:17.604Z,52.25
2018-04-25T00:09:17.769Z,52.98
2018-04-25T00:10:17.936Z,53.96
2018-04-25T00:11:18.103Z,51.51
2018-04-25T00:15:00.824Z,52.49
2018-04-25T00:16:01.061Z,64.45
2018-04-25T00:17:01.156Z,58.84
2018-04-25T00:18:01.318Z,51.51
2018-04-25T00:19:01.485Z,54.44
2018-04-25T00:20:01.655Z,47.36
2018-04-25T00:21:01.819Z,73.49
2018-04-25T00:22:01.986Z,54.20
2018-04-25T00:23:02.156Z,50.05
2018-04-25T00:24:02.318Z,54.93
2018-04-25T00:25:02.483Z,42.48
2018-04-25T00:26:02.649Z,47.36
2018-04-25T00:27:02.816Z,48.83
2018-04-25T00:28:02.989Z,46.63
2018-04-25T00:31:45.415Z,51.51
2018-04-25T00:32:45.584Z,50.29
2018-04-25T00:33:45.749Z,48.10
2018-04-25T00:34:45.913Z,51.76
2018-04-25T00:35:46.078Z,53.22
2018-04-25T00:36:46.246Z,45.41
2018-04-25T00:37:46.410Z,44.43
2018-04-25T00:38:46.578Z,44.92
2018-04-25T00:39:46.794Z,46.39
2018-04-25T00:40:46.932Z,46.14
2018-04-25T00:41:47.100Z,51.27
2018-04-25T00:42:47.261Z,49.56
2018-04-25T00:43:47.441Z,48.10
2018-04-25T00:44:47.593Z,50.78
2018-04-25T00:48:30.011Z,52.25
2018-04-25T00:49:30.190Z,50.54
2018-04-25T00:50:30.355Z,49.80
2018-04-25T00:51:30.514Z,49.56
2018-04-25T00:52:30.673Z,47.85
2018-04-25T00:53:30.835Z,50.29
2018-04-25T00:54:31.002Z,61.04
2018-04-25T00:55:31.167Z,61.28
2018-04-25T00:56:31.333Z,48.83
2018-04-25T00:57:32.400Z,49.32
2018-04-25T00:58:31.688Z,55.18
2018-04-25T00:59:31.857Z,55.18
2018-04-25T01:00:32.017Z,53.47
2018-04-25T01:01:32.202Z,54.93
2018-04-25T01:05:14.897Z,51.51
2018-04-25T01:06:15.061Z,49.07
2018-04-25T01:07:15.227Z,46.88
2018-04-25T01:08:15.393Z,49.07
2018-04-25T01:09:15.567Z,48.58
2018-04-25T01:10:15.729Z,45.41
2018-04-25T01:11:15.893Z,41.26
2018-04-25T01:12:16.062Z,51.03
2018-04-25T01:13:16.233Z,50.78
2018-04-25T01:14:16.391Z,53.96
2018-04-25T01:15:16.565Z,54.44
2018-04-25T01:16:16.723Z,46.88
2018-04-25T01:17:16.887Z,42.97
2018-04-25T01:18:17.056Z,52.00
2018-04-25T01:22:01.339Z,65.19
2018-04-25T01:22:59.872Z,44.68
2018-04-25T01:24:00.037Z,45.41
2018-04-25T01:25:00.204Z,49.32
2018-04-25T01:26:00.369Z,48.10
2018-04-25T01:27:00.531Z,48.58
2018-04-25T01:28:00.698Z,45.41
2018-04-25T01:29:00.859Z,48.58
2018-04-25T01:30:01.023Z,48.58
2018-04-25T01:33:43.762Z,51.27
2018-04-25T01:34:43.922Z,56.15
2018-04-25T01:35:44.087Z,57.13
2018-04-25T01:36:44.254Z,63.48
2018-04-25T01:37:44.419Z,50.05
2018-04-25T01:38:44.584Z,50.54
2018-04-25T01:39:44.747Z,44.92
2018-04-25T01:40:44.915Z,46.14
2018-04-25T01:41:45.082Z,52.00
2018-04-25T01:45:27.513Z,46.88
2018-04-25T01:46:27.676Z,49.80
2018-04-25T01:47:27.840Z,55.18
2018-04-25T01:48:28.008Z,47.85
2018-04-25T01:49:28.173Z,47.12
2018-04-25T01:50:28.342Z,49.07
2018-04-25T01:51:28.503Z,51.27
2018-04-25T01:52:28.665Z,50.29
2018-04-25T01:53:28.835Z,47.36
2018-04-25T01:54:28.999Z,44.43
2018-04-25T01:55:29.282Z,55.18
2018-04-25T01:56:29.320Z,50.05
2018-04-25T01:57:29.476Z,54.69
2018-04-25T01:58:29.643Z,48.10
2018-04-25T02:02:12.377Z,57.86
2018-04-25T02:03:12.614Z,55.91
2018-04-25T02:04:12.728Z,47.36
2018-04-25T02:05:12.892Z,45.65
2018-04-25T02:06:13.067Z,47.36
2018-04-25T02:07:13.232Z,48.10
2018-04-25T02:08:13.396Z,46.88
2018-04-25T02:09:13.564Z,47.36
2018-04-25T02:10:13.726Z,50.29
2018-04-25T02:11:13.897Z,50.29
2018-04-25T02:12:14.064Z,53.71
2018-04-25T02:13:14.225Z,62.50
2018-04-25T02:14:14.401Z,49.32
2018-04-25T02:15:14.564Z,50.78
2018-04-25T02:18:56.993Z,47.36
2018-04-25T02:19:57.156Z,48.34
2018-04-25T02:20:57.321Z,54.69
2018-04-25T02:21:57.488Z,69.58
2018-04-25T02:22:57.658Z,52.98
2018-04-25T02:23:57.816Z,56.15
2018-04-25T02:24:57.980Z,64.21
2018-04-25T02:25:58.153Z,75.44
2018-04-25T02:26:58.318Z,46.39
2018-04-25T02:27:58.485Z,49.80
2018-04-25T02:28:58.653Z,48.10
2018-04-25T02:29:58.819Z,46.88
2018-04-25T02:30:58.983Z,49.07
2018-04-25T02:31:59.149Z,47.61
2018-04-25T02:35:31.897Z,47.36
2018-04-25T02:36:32.062Z,50.05
2018-04-25T02:37:32.231Z,50.54
2018-04-25T02:38:32.394Z,48.58
2018-04-25T02:39:32.560Z,47.85
2018-04-25T02:40:32.725Z,54.44
2018-04-25T02:41:32.893Z,63.72
2018-04-25T02:42:33.065Z,55.42
2018-04-25T02:43:33.233Z,47.61
2018-04-25T02:44:33.393Z,62.74
2018-04-25T02:45:33.560Z,53.47
2018-04-25T02:46:33.728Z,48.83
2018-04-25T02:47:33.892Z,48.34
2018-04-25T02:48:34.057Z,53.22
2018-04-25T02:52:06.522Z,50.54
2018-04-25T02:53:06.688Z,48.10
2018-04-25T02:54:06.857Z,51.27
2018-04-25T02:55:07.011Z,48.58
2018-04-25T02:56:07.182Z,51.03
2018-04-25T02:57:07.350Z,64.21
2018-04-25T02:58:07.539Z,63.23
2018-04-25T02:59:07.684Z,50.54
2018-04-25T03:00:07.850Z,50.54
2018-04-25T03:01:08.018Z,55.18
2018-04-25T03:02:08.187Z,56.88
2018-04-25T03:03:08.346Z,49.56
2018-04-25T03:04:08.511Z,49.56
2018-04-25T03:05:08.680Z,51.03
2018-04-25T03:08:51.395Z,55.42
2018-04-25T03:09:51.554Z,57.62
2018-04-25T03:10:51.723Z,56.15
2018-04-25T03:11:51.887Z,58.84
2018-04-25T03:12:52.054Z,59.33
2018-04-25T03:13:52.231Z,62.01
2018-04-25T03:14:52.384Z,60.55
2018-04-25T03:15:52.546Z,60.79
2018-04-25T03:16:52.724Z,64.21
2018-04-25T03:17:52.875Z,58.11
2018-04-25T03:18:53.051Z,59.08
2018-04-25T03:19:53.211Z,58.35
2018-04-25T03:20:53.373Z,61.04
2018-04-25T03:21:53.528Z,67.38
2018-04-25T03:25:26.257Z,62.50
2018-04-25T03:26:26.421Z,64.45
2018-04-25T03:27:26.591Z,66.65
2018-04-25T03:28:29.325Z,61.77
2018-04-25T03:29:26.865Z,68.60
2018-04-25T03:30:27.030Z,61.77
2018-04-25T03:31:27.200Z,69.82
2018-04-25T03:32:27.362Z,49.80
2018-04-25T03:33:27.532Z,56.15
2018-04-25T03:34:27.696Z,51.76
2018-04-25T03:35:27.864Z,58.84
2018-04-25T03:36:28.022Z,61.52
2018-04-25T03:37:28.238Z,62.01
2018-04-25T03:38:28.358Z,83.98
2018-04-25T03:42:00.798Z,65.67
2018-04-25T03:43:00.958Z,68.85
2018-04-25T03:44:01.123Z,66.65
2018-04-25T03:45:01.287Z,69.82
2018-04-25T03:46:01.454Z,64.94
2018-04-25T03:47:01.619Z,67.14
2018-04-25T03:48:01.784Z,64.21
2018-04-25T03:49:01.963Z,66.89
2018-04-25T03:50:02.130Z,72.02
2018-04-25T03:53:44.574Z,64.45
2018-04-25T03:54:44.753Z,64.70
2018-04-25T03:55:44.939Z,73.73
2018-04-25T03:56:45.100Z,56.40
2018-04-25T03:57:45.258Z,71.78
2018-04-25T03:58:45.460Z,83.98
2018-04-25T03:59:45.612Z,72.51
2018-04-25T04:00:45.777Z,69.34
2018-04-25T04:01:45.937Z,66.89
2018-04-25T04:02:46.104Z,71.78
2018-04-25T04:03:46.280Z,72.02
2018-04-25T04:04:46.438Z,80.81
2018-04-25T04:05:46.617Z,77.15
2018-04-25T04:06:46.783Z,67.14
2018-04-25T04:10:29.195Z,64.21
2018-04-25T04:11:29.353Z,67.63
2018-04-25T04:12:29.525Z,77.64
2018-04-25T04:13:29.692Z,68.60
2018-04-25T04:14:29.859Z,61.04
2018-04-25T04:15:30.019Z,69.82
2018-04-25T04:16:30.191Z,73.24
2018-04-25T04:17:30.374Z,69.09
2018-04-25T04:18:30.539Z,67.63
2018-04-25T04:19:38.376Z,66.65
2018-04-25T04:20:30.906Z,74.95
2018-04-25T04:21:31.085Z,73.00
2018-04-25T04:22:31.235Z,67.38
2018-04-25T04:23:31.400Z,75.20
2018-04-25T04:24:39.521Z,68.60
2018-04-25T04:25:31.675Z,68.85
2018-04-25T04:26:31.838Z,67.63
2018-04-25T04:27:32.007Z,69.34
2018-04-25T04:28:32.162Z,67.38
2018-04-25T04:29:32.329Z,83.25
2018-04-25T04:30:32.493Z,77.15
2018-04-25T04:31:32.655Z,64.21
2018-04-25T04:32:32.821Z,64.21
2018-04-25T04:33:32.988Z,68.12
2018-04-25T04:34:34.041Z,66.41
2018-04-25T04:35:33.312Z,77.64
2018-04-25T04:36:33.479Z,77.39
2018-04-25T04:37:33.641Z,68.85
2018-04-25T04:38:33.807Z,75.93
2018-04-25T04:42:06.545Z,75.68
2018-04-25T04:43:06.715Z,73.00
2018-04-25T04:44:06.873Z,66.41
2018-04-25T04:45:07.049Z,74.22
2018-04-25T04:46:07.232Z,66.41
2018-04-25T04:47:07.384Z,67.87
2018-04-25T04:48:07.546Z,68.60
2018-04-25T04:49:07.707Z,63.96
2018-04-25T04:50:07.875Z,65.67
2018-04-25T04:51:15.712Z,62.99
2018-04-25T04:52:08.265Z,75.44
2018-04-25T04:53:08.516Z,60.79
2018-04-25T04:54:08.545Z,68.12
2018-04-25T04:55:08.702Z,69.09
2018-04-25T04:56:08.871Z,63.23
2018-04-25T04:57:09.032Z,65.19
2018-04-25T04:58:09.205Z,71.04
2018-04-25T04:59:09.374Z,94.24
2018-04-25T05:00:17.513Z,74.71
2018-04-25T05:01:09.646Z,73.49
2018-04-25T05:02:09.839Z,65.67
2018-04-25T05:03:09.995Z,65.92
2018-04-25T05:04:10.168Z,69.58
2018-04-25T05:05:11.249Z,63.23
2018-04-25T05:06:10.441Z,78.61
2018-04-25T05:07:10.680Z,76.90
2018-04-25T05:08:10.750Z,65.67
2018-04-25T05:09:10.922Z,69.58
2018-04-25T05:10:11.143Z,74.71
2018-04-25T05:11:11.190Z,71.29
2018-04-25T05:12:11.349Z,65.67
2018-04-25T05:13:11.563Z,66.89
2018-04-25T05:14:20.020Z,80.08
2018-04-25T05:15:11.797Z,76.17
2018-04-25T05:16:11.969Z,79.10
2018-04-25T05:17:12.127Z,65.67
2018-04-25T05:18:12.291Z,71.29
2018-04-25T05:19:12.459Z,71.29
2018-04-25T05:20:12.627Z,81.54
2018-04-25T05:21:12.813Z,71.78
2018-04-25T05:22:20.428Z,70.31
2018-04-25T05:23:13.391Z,73.97
2018-04-25T05:24:13.196Z,68.60
2018-04-25T05:25:13.358Z,66.89
2018-04-25T05:26:13.521Z,69.82
2018-04-25T05:27:13.740Z,83.01
2018-04-25T05:28:13.842Z,74.95
2018-04-25T05:29:14.009Z,71.04
2018-04-25T05:30:14.172Z,73.73
2018-04-25T05:31:14.789Z,69.09
2018-04-25T05:32:14.737Z,67.87
2018-04-25T05:33:14.701Z,76.42
2018-04-25T05:34:14.856Z,69.34
2018-04-25T05:35:15.020Z,81.05
2018-04-25T05:36:23.144Z,76.90
2018-04-25T05:37:15.318Z,71.78
2018-04-25T05:38:15.474Z,78.61
2018-04-25T05:39:15.640Z,70.80
2018-04-25T05:40:15.842Z,79.59
2018-04-25T05:41:15.975Z,74.71
2018-04-25T05:42:16.154Z,99.12
2018-04-25T05:43:16.301Z,72.02
2018-04-25T05:44:16.468Z,70.31
2018-04-25T05:45:16.748Z,66.65
2018-04-25T05:46:17.724Z,68.85
2018-04-25T05:49:49.281Z,75.93
2018-04-25T05:50:49.443Z,72.51
2018-04-25T05:51:49.707Z,72.51
2018-04-25T05:52:49.779Z,77.39
2018-04-25T05:53:57.914Z,77.39
2018-04-25T05:54:50.072Z,66.89
2018-04-25T05:55:50.234Z,70.31
2018-04-25T05:56:57.565Z,75.20
2018-04-25T05:57:50.687Z,76.66
2018-04-25T05:58:50.797Z,77.39
2018-04-25T05:59:50.960Z,75.93
2018-04-25T06:00:51.127Z,72.51
2018-04-25T06:01:51.295Z,71.53
2018-04-25T06:02:51.463Z,71.29
2018-04-25T06:03:51.648Z,71.04
2018-04-25T06:04:51.816Z,75.20
2018-04-25T06:05:51.983Z,74.46
2018-04-25T06:06:52.148Z,69.82
2018-04-25T06:07:52.313Z,72.75
2018-04-25T06:08:52.488Z,68.85
2018-04-25T06:09:52.643Z,67.87
2018-04-25T06:10:52.811Z,72.27
2018-04-25T06:14:35.234Z,62.99
2018-04-25T06:15:35.404Z,67.14
2018-04-25T06:16:35.564Z,80.57
2018-04-25T06:17:35.731Z,70.56
2018-04-25T06:18:35.894Z,75.20
2018-04-25T06:19:36.059Z,86.18
2018-04-25T06:20:36.227Z,82.28
2018-04-25T06:24:08.952Z,67.63
2018-04-25T06:25:09.132Z,85.94
2018-04-25T06:26:10.020Z,76.90
2018-04-25T06:27:10.026Z,67.14
2018-04-25T06:28:09.583Z,70.07
2018-04-25T06:29:09.771Z,68.60
2018-04-25T06:30:09.955Z,73.24
2018-04-25T06:31:10.109Z,69.34
2018-04-25T06:32:10.292Z,71.04
2018-04-25T06:33:10.459Z,81.79
2018-04-25T06:34:10.627Z,75.20
2018-04-25T06:35:10.793Z,70.56
2018-04-25T06:36:10.948Z,70.56
2018-04-25T06:37:11.116Z,80.08
2018-04-25T06:40:53.485Z,77.15
2018-04-25T06:41:53.650Z,80.57
2018-04-25T06:42:53.835Z,69.58
2018-04-25T06:43:53.986Z,66.89
2018-04-25T06:44:54.265Z,69.09
2018-04-25T06:45:54.314Z,65.43
2018-04-25T06:46:54.476Z,69.58
2018-04-25T06:47:54.645Z,76.90
2018-04-25T06:48:54.829Z,68.12
2018-04-25T06:50:02.920Z,66.89
2018-04-25T06:50:55.091Z,64.94
2018-04-25T06:51:55.238Z,67.63
2018-04-25T06:55:27.457Z,71.29
2018-04-25T06:56:27.623Z,72.75
2018-04-25T06:57:27.792Z,78.37
2018-04-25T06:58:27.945Z,72.02
2018-04-25T06:59:28.123Z,67.63
2018-04-25T07:00:28.295Z,76.66
2018-04-25T07:01:28.462Z,67.87
2018-04-25T07:02:28.632Z,64.70
2018-04-25T07:03:28.799Z,69.58
2018-04-25T07:04:28.977Z,73.97
2018-04-25T07:05:29.146Z,67.38
2018-04-25T07:06:29.316Z,74.95
2018-04-25T07:07:29.465Z,70.31
2018-04-25T07:08:29.675Z,66.16
2018-04-25T07:12:20.398Z,65.92
2018-04-25T07:13:12.199Z,68.85
2018-04-25T07:14:12.432Z,68.85
2018-04-25T07:15:12.540Z,71.53
2018-04-25T07:16:20.661Z,66.89
2018-04-25T07:17:12.815Z,67.63
2018-04-25T07:18:12.987Z,72.51
2018-04-25T07:19:13.153Z,73.24
2018-04-25T07:20:13.324Z,76.66
2018-04-25T07:21:13.489Z,62.74
2018-04-25T07:22:13.653Z,68.36
2018-04-25T07:23:13.820Z,62.01
2018-04-25T07:24:13.982Z,73.49
2018-04-25T07:25:14.151Z,73.73
2018-04-25T07:26:14.320Z,67.14
2018-04-25T07:27:14.474Z,78.37
2018-04-25T07:28:14.653Z,64.70
2018-04-25T07:29:14.808Z,66.89
2018-04-25T07:30:14.976Z,72.27
2018-04-25T07:33:47.442Z,69.09
2018-04-25T07:34:47.597Z,73.24
2018-04-25T07:35:47.772Z,70.31
2018-04-25T07:36:47.932Z,77.64
2018-04-25T07:37:48.097Z,67.63
2018-04-25T07:38:48.267Z,67.63
2018-04-25T07:39:56.115Z,71.78
2018-04-25T07:40:48.645Z,67.14
2018-04-25T07:41:48.893Z,64.94
2018-04-25T07:42:56.288Z,71.53
2018-04-25T07:43:49.179Z,66.41
2018-04-25T07:44:52.154Z,70.31
2018-04-25T07:45:49.760Z,76.42
2018-04-25T07:46:52.199Z,69.58
2018-04-25T07:47:51.146Z,74.95
2018-04-25T07:48:50.240Z,70.07
2018-04-25T07:49:50.337Z,79.83
2018-04-25T07:50:50.467Z,72.75
2018-04-25T07:51:50.573Z,74.95
2018-04-25T07:52:58.326Z,69.34
2018-04-25T07:53:50.726Z,71.53
2018-04-25T07:54:50.887Z,62.01
2018-04-25T07:55:51.059Z,76.17
2018-04-25T07:56:51.235Z,71.04
2018-04-25T07:57:51.408Z,64.94
2018-04-25T07:58:51.553Z,64.45
2018-04-25T07:59:51.742Z,66.65
2018-04-25T08:00:51.901Z,74.95
2018-04-25T08:01:52.065Z,69.09
2018-04-25T08:02:52.242Z,81.30
2018-04-25T08:03:52.408Z,80.32
2018-04-25T08:04:52.572Z,69.09
2018-04-25T08:05:52.778Z,70.56
2018-04-25T08:06:52.921Z,74.22
2018-04-25T08:10:35.669Z,66.41
2018-04-25T08:11:36.729Z,65.67
2018-04-25T08:12:36.020Z,67.38
2018-04-25T08:13:36.191Z,72.02
2018-04-25T08:14:36.364Z,76.66
2018-04-25T08:15:36.524Z,75.68
2018-04-25T08:16:36.693Z,78.13
2018-04-25T08:17:36.858Z,68.36
2018-04-25T08:18:37.027Z,67.14
2018-04-25T08:19:37.195Z,82.03
2018-04-25T08:20:37.350Z,79.83
2018-04-25T08:21:37.539Z,70.31
2018-04-25T08:22:37.692Z,73.73
2018-04-25T08:23:37.860Z,66.65
2018-04-25T08:27:20.593Z,69.58
2018-04-25T08:28:20.763Z,68.36
2018-04-25T08:29:20.931Z,69.09
2018-04-25T08:30:21.101Z,70.31
2018-04-25T08:31:21.268Z,71.04
2018-04-25T08:32:21.437Z,77.64
2018-04-25T08:33:21.602Z,72.02
2018-04-25T08:34:21.825Z,66.16
2018-04-25T08:35:21.962Z,71.78
2018-04-25T08:36:22.110Z,69.58
2018-04-25T08:37:22.279Z,72.75
2018-04-25T08:38:22.439Z,73.73
2018-04-25T08:39:22.593Z,68.85
2018-04-25T08:40:22.761Z,69.82
2018-04-25T08:44:05.196Z,71.04
2018-04-25T08:45:05.411Z,73.73
2018-04-25T08:46:05.534Z,69.82
2018-04-25T08:47:05.701Z,70.80
2018-04-25T08:48:13.528Z,71.78
2018-04-25T08:49:06.063Z,64.70
2018-04-25T08:50:06.225Z,66.89
2018-04-25T08:51:08.076Z,66.89
2018-04-25T08:52:06.644Z,65.43
2018-04-25T08:53:06.782Z,68.12
2018-04-25T08:54:14.408Z,70.07
2018-04-25T08:55:07.069Z,68.60
2018-04-25T08:56:07.245Z,69.82
2018-04-25T08:57:14.881Z,66.89
2018-04-25T08:58:07.533Z,72.75
2018-04-25T08:59:07.760Z,65.67
2018-04-25T09:00:07.864Z,68.85
2018-04-25T09:01:08.138Z,71.78
2018-04-25T09:02:08.212Z,70.80
2018-04-25T09:03:08.380Z,77.15
2018-04-25T09:04:08.751Z,67.63
2018-04-25T09:05:08.735Z,66.65
2018-04-25T09:06:08.883Z,65.92
2018-04-25T09:07:09.060Z,66.16
2018-04-25T09:10:42.563Z,73.97
2018-04-25T09:11:43.382Z,72.51
2018-04-25T09:12:42.894Z,67.38
2018-04-25T09:13:43.074Z,62.01
2018-04-25T09:14:43.231Z,66.65
2018-04-25T09:15:43.400Z,69.09
2018-04-25T09:16:43.566Z,70.56
2018-04-25T09:17:43.737Z,69.09
2018-04-25T09:18:43.906Z,69.09
2018-04-25T09:19:44.071Z,73.49
2018-04-25T09:20:44.241Z,71.53
2018-04-25T09:21:44.408Z,67.63
2018-04-25T09:22:44.573Z,69.82
2018-04-25T09:23:44.728Z,68.36
2018-04-25T09:27:27.183Z,69.58
2018-04-25T09:28:35.116Z,67.14
2018-04-25T09:29:27.525Z,70.07
2018-04-25T09:30:27.692Z,75.44
2018-04-25T09:31:27.858Z,74.46
2018-04-25T09:32:28.025Z,73.97
2018-04-25T09:33:28.195Z,74.46
2018-04-25T09:34:28.404Z,66.16
2018-04-25T09:35:28.531Z,83.25
2018-04-25T09:36:28.698Z,68.12
2018-04-25T09:37:28.866Z,69.09
2018-04-25T09:38:29.030Z,73.73
2018-04-25T09:39:29.201Z,71.78
2018-04-25T09:40:29.416Z,73.49
2018-04-25T09:41:29.555Z,64.94
2018-04-25T09:42:29.721Z,71.78
2018-04-25T09:46:02.250Z,70.31
2018-04-25T09:47:02.336Z,67.63
2018-04-25T09:48:02.500Z,71.53
2018-04-25T09:49:02.669Z,65.43
2018-04-25T09:50:02.824Z,71.04
2018-04-25T09:51:03.011Z,77.39
2018-04-25T09:52:03.179Z,77.15
2018-04-25T09:53:03.437Z,81.30
2018-04-25T09:54:03.539Z,70.31
2018-04-25T09:55:03.716Z,63.72
2018-04-25T09:56:03.873Z,73.73
2018-04-25T09:57:04.055Z,75.93
2018-04-25T09:58:12.170Z,77.15
2018-04-25T09:59:04.318Z,70.56
2018-04-25T10:00:04.561Z,68.12
2018-04-25T10:01:04.592Z,71.53
2018-04-25T10:02:04.757Z,71.53
2018-04-25T10:03:12.888Z,68.36
2018-04-25T10:04:05.113Z,71.04
2018-04-25T10:05:05.212Z,69.34
2018-04-25T10:06:05.378Z,69.82
2018-04-25T10:07:05.551Z,71.78
2018-04-25T10:08:05.733Z,62.50
2018-04-25T10:09:05.888Z,71.04
2018-04-25T10:10:06.572Z,66.16
2018-04-25T10:11:06.236Z,70.56
2018-04-25T10:12:06.414Z,77.15
2018-04-25T10:13:07.573Z,66.89
2018-04-25T10:16:39.008Z,73.97
2018-04-25T10:17:39.171Z,82.03
2018-04-25T10:18:39.384Z,71.29
2018-04-25T10:19:39.538Z,72.51
2018-04-25T10:20:39.713Z,74.46
2018-04-25T10:21:39.921Z,71.29
2018-04-25T10:22:47.995Z,67.14
2018-04-25T10:23:40.161Z,76.90
2018-04-25T10:24:40.371Z,66.65
2018-04-25T10:25:47.948Z,77.15
2018-04-25T10:26:40.611Z,72.27
2018-04-25T10:27:41.416Z,77.15
2018-04-25T10:28:41.075Z,72.27
2018-04-25T10:29:41.133Z,73.49
2018-04-25T10:30:41.302Z,74.46
2018-04-25T10:31:41.477Z,73.49
2018-04-25T10:32:41.786Z,66.89
2018-04-25T10:33:41.753Z,70.31
2018-04-25T10:34:41.917Z,73.97
2018-04-25T10:35:42.923Z,70.56
2018-04-25T10:39:24.802Z,73.00
2018-04-25T10:40:25.021Z,68.85
2018-04-25T10:41:25.118Z,64.45
2018-04-25T10:42:25.287Z,72.02
2018-04-25T10:43:25.462Z,72.75
2018-04-25T10:44:25.634Z,70.56
2018-04-25T10:45:25.806Z,74.95
2018-04-25T10:46:25.968Z,74.71
2018-04-25T10:47:26.134Z,70.80
2018-04-25T10:53:26.916Z,75.93
2018-04-25T10:54:34.252Z,87.65
2018-04-25T10:55:27.305Z,70.56
2018-04-25T10:56:27.459Z,75.93
2018-04-25T10:57:27.632Z,75.68
2018-04-25T10:58:27.851Z,69.82
2018-04-25T10:59:27.997Z,66.16
2018-04-25T11:00:29.153Z,77.15
2018-04-25T11:01:28.292Z,76.66
2018-04-25T11:02:28.495Z,72.75
2018-04-25T11:03:36.182Z,75.44
2018-04-25T11:04:28.883Z,77.64
2018-04-25T11:05:29.640Z,72.27
2018-04-25T11:06:29.180Z,80.81
2018-04-25T11:07:29.430Z,80.08
2018-04-25T11:08:29.549Z,82.52
2018-04-25T11:09:29.683Z,78.86
2018-04-25T11:10:29.860Z,80.81
2018-04-25T11:11:30.039Z,85.21
2018-04-25T11:12:30.205Z,80.08
2018-04-25T11:13:30.440Z,72.02
2018-04-25T11:14:38.535Z,73.00
2018-04-25T11:15:30.690Z,71.78
2018-04-25T11:16:30.846Z,82.03
2018-04-25T11:17:31.007Z,78.37
2018-04-25T11:18:31.178Z,73.24
2018-04-25T11:19:31.344Z,71.04
2018-04-25T11:20:31.504Z,80.08
2018-04-25T11:21:31.666Z,80.08
2018-04-25T11:22:34.714Z,75.20
2018-04-25T11:23:33.654Z,71.53
2018-04-25T11:24:32.114Z,71.04
2018-04-25T11:25:39.945Z,70.31
2018-04-25T11:26:32.510Z,70.07
2018-04-25T11:27:32.531Z,66.89
2018-04-25T11:28:32.934Z,69.34
2018-04-25T11:29:33.149Z,75.68
2018-04-25T11:30:32.972Z,75.44
2018-04-25T11:31:33.146Z,84.47
2018-04-25T11:32:33.449Z,69.82
2018-04-25T11:33:33.681Z,90.09
2018-04-25T11:34:33.726Z,76.66
2018-04-25T11:35:34.612Z,79.59
2018-04-25T11:39:06.334Z,79.10
2018-04-25T11:40:06.504Z,70.31
2018-04-25T11:41:07.191Z,65.43
2018-04-25T11:42:06.851Z,72.27
2018-04-25T11:43:08.685Z,78.13
2018-04-25T11:44:07.325Z,73.97
2018-04-25T11:45:07.406Z,72.51
2018-04-25T11:46:07.539Z,71.78
2018-04-25T11:47:07.806Z,72.51
2018-04-25T11:48:15.859Z,72.27
2018-04-25T11:49:08.022Z,67.14
2018-04-25T11:50:08.190Z,70.56
2018-04-25T11:51:08.360Z,74.46
2018-04-25T11:52:08.521Z,69.58
2018-04-25T11:53:08.694Z,68.36
2018-04-25T11:54:08.859Z,75.44
2018-04-25T11:55:09.029Z,68.12
2018-04-25T11:56:09.204Z,76.66
2018-04-25T11:57:09.372Z,79.59
2018-04-25T11:58:09.541Z,72.02
2018-04-25T12:01:43.091Z,91.06
2018-04-25T12:02:43.275Z,75.20
2018-04-25T12:03:43.444Z,76.66
2018-04-25T12:04:43.616Z,73.97
2018-04-25T12:05:43.780Z,74.22
2018-04-25T12:06:43.946Z,78.61
2018-04-25T12:07:44.105Z,74.46
2018-04-25T12:08:46.844Z,69.34
2018-04-25T12:09:44.502Z,72.51
2018-04-25T12:10:44.667Z,73.00
2018-04-25T12:11:44.835Z,68.60
2018-04-25T12:12:45.004Z,67.38
2018-04-25T12:13:45.162Z,73.73
2018-04-25T12:14:45.342Z,82.28
2018-04-25T12:18:28.097Z,83.25
2018-04-25T12:19:28.267Z,79.83
2018-04-25T12:20:28.433Z,68.12
2018-04-25T12:21:36.265Z,76.17
2018-04-25T12:22:29.663Z,67.14
2018-04-25T12:23:29.048Z,69.09
2018-04-25T12:24:36.302Z,75.44
2018-04-25T12:25:29.347Z,77.15
2018-04-25T12:26:29.514Z,72.51
2018-04-25T12:27:37.171Z,71.29
2018-04-25T12:28:29.902Z,70.07
2018-04-25T12:29:30.066Z,69.82
2018-04-25T12:30:30.233Z,75.20
2018-04-25T12:31:30.399Z,66.89
2018-04-25T12:32:30.565Z,73.24
2018-04-25T12:33:30.736Z,76.17
2018-04-25T12:34:32.711Z,65.43
2018-04-25T12:35:31.127Z,71.78
2018-04-25T12:36:33.211Z,78.86
2018-04-25T12:41:14.551Z,66.65
2018-04-25T12:42:14.718Z,68.85
2018-04-25T12:43:14.878Z,71.29
2018-04-25T12:46:47.456Z,66.16
2018-04-25T12:47:46.935Z,75.20
2018-04-25T12:48:47.098Z,69.82
2018-04-25T12:49:47.287Z,67.87
2018-04-25T12:50:48.970Z,76.90
2018-04-25T12:51:47.940Z,68.12
2018-04-25T12:52:47.908Z,88.38
2018-04-25T12:53:48.320Z,70.31
2018-04-25T12:54:48.107Z,72.75
2018-04-25T12:58:30.661Z,79.10
2018-04-25T12:59:30.835Z,77.88
2018-04-25T13:00:31.007Z,69.09
2018-04-25T13:01:31.162Z,75.68
2018-04-25T13:02:31.340Z,73.73
2018-04-25T13:03:38.707Z,72.02
2018-04-25T13:04:32.424Z,68.60
2018-04-25T13:05:31.834Z,68.60
2018-04-25T13:06:31.998Z,77.39
2018-04-25T13:07:39.621Z,73.97
2018-04-25T13:08:32.288Z,70.80
2018-04-25T13:09:32.447Z,70.31
2018-04-25T13:10:33.438Z,81.05
2018-04-25T13:11:32.715Z,76.17
2018-04-25T13:12:32.881Z,79.83
2018-04-25T13:13:33.052Z,101.56
2018-04-25T13:14:33.235Z,68.12
2018-04-25T13:15:33.396Z,80.57
2018-04-25T13:16:33.560Z,79.59
2018-04-25T13:17:33.712Z,73.97
2018-04-25T13:18:33.879Z,67.14
2018-04-25T13:19:34.057Z,66.65
2018-04-25T13:20:34.211Z,65.67
2018-04-25T13:21:34.377Z,79.83
2018-04-25T13:25:16.846Z,79.10
2018-04-25T13:26:24.954Z,77.88
2018-04-25T13:27:17.134Z,75.44
2018-04-25T13:28:17.315Z,79.10
2018-04-25T13:29:17.548Z,67.38
2018-04-25T13:30:24.996Z,71.78
2018-04-25T13:31:17.705Z,75.68
2018-04-25T13:32:17.876Z,72.75
2018-04-25T13:33:18.038Z,79.10
2018-04-25T13:34:18.208Z,79.83
2018-04-25T13:35:18.369Z,71.29
2018-04-25T13:36:18.536Z,73.00
2018-04-25T13:37:18.714Z,90.58
2018-04-25T13:38:19.716Z,75.93
2018-04-25T13:39:19.007Z,77.64
2018-04-25T13:40:19.175Z,76.17
2018-04-25T13:41:19.343Z,86.43
2018-04-25T13:42:19.509Z,85.94
2018-04-25T13:43:19.677Z,73.24
2018-04-25T13:44:19.847Z,74.71
2018-04-25T13:48:02.282Z,71.29
2018-04-25T13:49:02.457Z,80.08
2018-04-25T13:50:02.623Z,75.20
2018-04-25T13:51:02.791Z,67.38
2018-04-25T13:52:03.651Z,83.25
2018-04-25T13:53:03.099Z,70.31
2018-04-25T13:54:03.253Z,65.19
2018-04-25T13:55:03.422Z,68.60
2018-04-25T13:56:03.593Z,81.54
2018-04-25T13:57:11.428Z,67.63
2018-04-25T13:58:12.213Z,68.85
2018-04-25T13:59:04.131Z,74.46
2018-04-25T14:00:04.288Z,71.53
2018-04-25T14:01:04.451Z,80.81
2018-04-25T14:02:04.611Z,74.46
2018-04-25T14:03:04.776Z,68.60
2018-04-25T14:04:04.940Z,67.63
2018-04-25T14:05:12.569Z,68.85
2018-04-25T14:06:05.330Z,72.75
2018-04-25T14:07:05.409Z,73.97
2018-04-25T14:08:05.587Z,83.50
2018-04-25T14:09:05.751Z,68.36
2018-04-25T14:10:05.918Z,68.36
2018-04-25T14:11:06.092Z,73.24
2018-04-25T14:12:06.251Z,72.75
2018-04-25T14:13:06.509Z,65.67
2018-04-25T14:14:07.279Z,68.12
2018-04-25T14:15:07.633Z,66.16
2018-04-25T14:16:06.945Z,77.15
2018-04-25T14:17:07.115Z,68.12
2018-04-25T14:18:15.275Z,71.29
2018-04-25T14:19:07.438Z,66.89
2018-04-25T14:20:15.597Z,76.66
2018-04-25T14:21:07.756Z,95.46
2018-04-25T14:22:07.961Z,72.51
2018-04-25T14:23:08.130Z,71.04
2018-04-25T14:24:08.288Z,68.60
2018-04-25T14:25:08.489Z,71.78
2018-04-25T14:26:08.627Z,74.95
2018-04-25T14:27:08.795Z,68.12
2018-04-25T14:28:08.961Z,69.34
2018-04-25T14:29:16.306Z,72.75
2018-04-25T14:30:09.609Z,73.49
2018-04-25T14:31:09.466Z,76.17
2018-04-25T14:32:09.635Z,63.23
2018-04-25T14:33:09.854Z,75.44
2018-04-25T14:34:09.968Z,71.53
2018-04-25T14:35:10.272Z,75.93
2018-04-25T14:36:10.349Z,67.14
2018-04-25T14:37:10.530Z,77.88
2018-04-25T14:38:10.698Z,68.85
2018-04-25T14:39:10.871Z,72.27
2018-04-25T14:40:11.034Z,72.51
2018-04-25T14:43:43.773Z,67.63
2018-04-25T14:44:43.985Z,68.60
2018-04-25T14:45:44.112Z,69.34
2018-04-25T14:46:52.264Z,73.00
2018-04-25T14:47:44.417Z,65.92
2018-04-25T14:48:52.541Z,68.36